| Pilot: | GLD1248 Eduardo V. | Aircraft: | Beechcraft | Distance: | 181NM |
| From: | SBTG | To: | SBCG | Duration: | 1.75 |
| Validation: | Valid | Tipo: | Charter | Tail Number: | PT-GLD |
| ZFW: | 2766 | Block Fuel/Init FOB | 218flight_details.php/0 | Flight Fuel | 218 |
| Passengers: | 1 | Cargo: | 7 | Alternate: | SSKG |
| Departure Time: | 2050 | Cruise Speed: | 155 | Flight Level: | F0400 |
| Flight Type: | VFR | Aircraft Type: | BE35 | Weight Unit: | Kg |
| Date: | 21/06/2023 | Comments: | GOLD ACARS | Network: | VATSIM |
| Crash: | No | Validator Comments: | Rating | 133.98 |
| ROUTE | 204505S 0514049W 205020S 0521806W 202635S 0534532W REA 202603S 0535622W 203033S 0541509W 202555S 0541701W 202757S 0542241W 202810S 0544013W |
| REMARKS | OPR/GOLD VIRTUAL AIRLINES PER/A RMK/FROM SBTG RMK/PIC GLD1248 REA HOTEL BRAVO ZULU |
| Crash | OK | Beacon Lights off with engine on | OK | Speed above 250KIAS below 10.000ft | OK |
| Landing Lights OFF below 10.000ft | OK | Landing Lights ON above 10.000ft | OK | Stall | OK |
| Overspeed | OK | Pause | OK | Refuel | OK |
| Slew | OK | Taxi Lights OFF during taxi | OK | Land Lights OFF during take off | OK |
| Landing Lights OFF during landing | OK | Landed in not planned airfield | OK | Taxi speed above 25 kt | OK |
| Incorrect QNH during take off | OK | Incorrect QNH during landing | OK |
| Wind: | 270º/1 kt | Heading: | 222 |
| VS: | -96 ft/min | IAS: | 67 kt |
| Gforce: | 0.9248 G | Bank: | -1.05 |
| Pitch | 3.46 | Flaps | 100 |
| Nav Lights | ON | Landing Lights | ON |
| Beacon Lights | ON | Strobe Lights | ON |
| DATE | EVENT | IAS | ALTITUDE |
|---|---|---|---|
| 2023-06-21 20:50:50 | GOLD ACARS VERSION 3.1.2.0 | 0 | 0 |
| 2023-06-21 20:50:50 | BOARDING | 0 | 1105 |
| 2023-06-21 20:50:50 | LITTLENAVMAP ON | 0 | 1105 |
| 2023-06-21 20:51:14 | BCN LIGHTS ON | 0 | 1105 |
| 2023-06-21 20:51:15 | TAXI LIGHTS ON | 0 | 1105 |
| 2023-06-21 20:52:38 | STARTING ENGINE 1 | 0 | 1105 |
| 2023-06-21 20:53:31 | STB LIGHTS ON | 0 | 1105 |
| 2023-06-21 20:54:25 | TAXI TO THE RWY | 4 | 1105 |
| 2023-06-21 20:54:51 | LND LIGHTS ON | 4 | 1106 |
| 2023-06-21 20:56:54 | TAXI LIGHTS OFF | 0 | 1108 |
| 2023-06-21 20:57:31 | CLIMBING | 126 | 1116 |
| 2023-06-21 20:57:33 | GEAR UP | 126 | 1149 |
| 2023-06-21 20:58:04 | AP ENGAGED | 137 | 1823 |
| 2023-06-21 21:01:32 | CRUISE | 159 | 3964 |
| 2023-06-21 21:27:23 | STB LIGHTS OFF | 171 | 4002 |
| 2023-06-21 22:25:16 | AP DISENGAGED | 171 | 3998 |
| 2023-06-21 22:25:50 | STB LIGHTS ON | 151 | 3877 |
| 2023-06-21 22:25:50 | GEAR DOWN | 150 | 3878 |
| 2023-06-21 22:26:22 | FLAP 50% | 129 | 3696 |
| 2023-06-21 22:26:24 | LANDING | 128 | 3690 |
| 2023-06-21 22:26:43 | CLIMBING | 114 | 3628 |
| 2023-06-21 22:26:47 | CRUISE | 112 | 3662 |
| 2023-06-21 22:26:51 | LANDING | 112 | 3655 |
| 2023-06-21 22:27:03 | CLIMBING | 109 | 3648 |
| 2023-06-21 22:27:08 | CRUISE | 106 | 3699 |
| 2023-06-21 22:27:27 | LANDING | 108 | 3700 |
| 2023-06-21 22:29:23 | FLAP 100% | 124 | 3062 |
| 2023-06-21 22:31:43 | LANDED - VS: -96 ft/min | 67 | 1886 |
| 2023-06-21 22:31:49 | FLAP 0% | 52 | 1885 |
| 2023-06-21 22:32:05 | AT THE GATE | 29 | 1885 |
| 2023-06-21 22:32:29 | TAXI LIGHTS ON | 0 | 1884 |
| 2023-06-21 22:32:32 | LND LIGHTS OFF | 0 | 1884 |
| 2023-06-21 22:35:28 | STOPPING ENGINE 1 | 0 | 1884 |
| 2023-06-21 22:35:32 | TAXI LIGHTS OFF | 0 | 1884 |
| 2023-06-21 22:35:33 | STB LIGHTS OFF | 0 | 1884 |
| 2023-06-21 22:35:34 | NAV LIGHTS OFF | 0 | 1884 |
| 2023-06-21 22:35:37 | FLIGHT FINISHED | 0 | 1884 |
| DATE | IAS | GS | ALTITUDE | FUEL USED | OAT | Flight Phase |
|---|---|---|---|---|---|---|
| 2023-06-21 20:52:51 | 1 | 0 | 1105 | 0 | 15 | BOARDING |
| 2023-06-21 20:53:53 | 1 | 0 | 1105 | 0 | 15 | BOARDING |
| 2023-06-21 20:54:54 | 5 | 5 | 1106 | 0 | 15 | BOARDING |
| 2023-06-21 20:55:55 | 25 | 26 | 1108 | 0 | 15 | TAXI TO THE RWY |
| 2023-06-21 20:56:56 | 1 | 0 | 1108 | 0 | 15 | TAXI TO THE RWY |
| 2023-06-21 20:57:57 | 132 | 134 | 1701 | 1 | 13 | TAXI TO THE RWY |
| 2023-06-21 20:58:59 | 158 | 163 | 2433 | 2 | 12 | CLIMBING |
| 2023-06-21 20:59:59 | 162 | 168 | 3061 | 3 | 11 | CLIMBING |
| 2023-06-21 21:01:01 | 160 | 167 | 3667 | 4 | 10 | CLIMBING |
| 2023-06-21 21:02:02 | 167 | 176 | 3998 | 5 | 9 | CLIMBING |
| 2023-06-21 21:03:05 | 169 | 178 | 4004 | 6 | 9 | CRUISE |
| 2023-06-21 21:04:06 | 172 | 181 | 4005 | 7 | 9 | CRUISE |
| 2023-06-21 21:05:07 | 172 | 181 | 4004 | 8 | 9 | CRUISE |
| 2023-06-21 21:06:07 | 173 | 182 | 4006 | 9 | 9 | CRUISE |
| 2023-06-21 21:07:08 | 173 | 182 | 4006 | 10 | 9 | CRUISE |
| 2023-06-21 21:08:09 | 173 | 182 | 4007 | 11 | 9 | CRUISE |
| 2023-06-21 21:09:10 | 173 | 182 | 4008 | 12 | 9 | CRUISE |
| 2023-06-21 21:10:11 | 170 | 179 | 4002 | 13 | 9 | CRUISE |
| 2023-06-21 21:11:12 | 171 | 180 | 4008 | 14 | 9 | CRUISE |
| 2023-06-21 21:12:12 | 172 | 180 | 4001 | 15 | 9 | CRUISE |
| 2023-06-21 21:13:14 | 172 | 181 | 4002 | 16 | 9 | CRUISE |
| 2023-06-21 21:14:14 | 172 | 181 | 4001 | 17 | 9 | CRUISE |
| 2023-06-21 21:15:15 | 173 | 182 | 4003 | 19 | 9 | CRUISE |
| 2023-06-21 21:16:16 | 171 | 180 | 4002 | 20 | 9 | CRUISE |
| 2023-06-21 21:17:17 | 172 | 181 | 4003 | 21 | 9 | CRUISE |
| 2023-06-21 21:18:18 | 173 | 182 | 4004 | 22 | 9 | CRUISE |
| 2023-06-21 21:19:19 | 171 | 180 | 4001 | 23 | 9 | CRUISE |
| 2023-06-21 21:20:19 | 171 | 180 | 4001 | 24 | 9 | CRUISE |
| 2023-06-21 21:21:20 | 170 | 179 | 4000 | 25 | 9 | CRUISE |
| 2023-06-21 21:22:21 | 170 | 179 | 3998 | 26 | 9 | CRUISE |
| 2023-06-21 21:23:22 | 171 | 179 | 4003 | 27 | 9 | CRUISE |
| 2023-06-21 21:24:23 | 171 | 180 | 4003 | 28 | 10 | CRUISE |
| 2023-06-21 21:25:24 | 174 | 183 | 4005 | 29 | 10 | CRUISE |
| 2023-06-21 21:26:24 | 172 | 182 | 4004 | 30 | 10 | CRUISE |
| 2023-06-21 21:27:25 | 172 | 181 | 4003 | 31 | 10 | CRUISE |
| 2023-06-21 21:28:26 | 173 | 182 | 4005 | 32 | 10 | CRUISE |
| 2023-06-21 21:29:27 | 171 | 180 | 4007 | 33 | 10 | CRUISE |
| 2023-06-21 21:30:28 | 170 | 179 | 3998 | 34 | 10 | CRUISE |
| 2023-06-21 21:31:28 | 172 | 181 | 3999 | 35 | 9 | CRUISE |
| 2023-06-21 21:32:29 | 170 | 179 | 4002 | 36 | 9 | CRUISE |
| 2023-06-21 21:33:30 | 172 | 181 | 4003 | 37 | 9 | CRUISE |
| 2023-06-21 21:34:31 | 171 | 181 | 4003 | 38 | 10 | CRUISE |
| 2023-06-21 21:35:32 | 171 | 181 | 4000 | 39 | 10 | CRUISE |
| 2023-06-21 21:36:32 | 171 | 180 | 4002 | 40 | 9 | CRUISE |
| 2023-06-21 21:37:33 | 172 | 181 | 4004 | 41 | 9 | CRUISE |
| 2023-06-21 21:38:34 | 172 | 181 | 4004 | 42 | 9 | CRUISE |
| 2023-06-21 21:39:35 | 171 | 181 | 4002 | 43 | 10 | CRUISE |
| 2023-06-21 21:40:36 | 173 | 182 | 4005 | 44 | 10 | CRUISE |
| 2023-06-21 21:41:36 | 171 | 181 | 3997 | 45 | 10 | CRUISE |
| 2023-06-21 21:42:37 | 174 | 183 | 4004 | 46 | 10 | CRUISE |
| 2023-06-21 21:43:38 | 173 | 182 | 4004 | 47 | 10 | CRUISE |
| 2023-06-21 21:44:39 | 171 | 181 | 4000 | 48 | 10 | CRUISE |
| 2023-06-21 21:45:40 | 171 | 181 | 4000 | 48 | 10 | CRUISE |
| 2023-06-21 21:46:41 | 171 | 181 | 4000 | 48 | 10 | CRUISE |
| 2023-06-21 21:47:41 | 171 | 181 | 4000 | 48 | 10 | CRUISE |
| 2023-06-21 21:48:42 | 171 | 181 | 4000 | 48 | 10 | CRUISE |
| 2023-06-21 21:49:43 | 171 | 181 | 4000 | 48 | 10 | CRUISE |
| 2023-06-21 21:50:44 | 171 | 181 | 4000 | 48 | 10 | CRUISE |
| 2023-06-21 21:51:45 | 171 | 181 | 4000 | 48 | 10 | CRUISE |
| 2023-06-21 21:52:45 | 171 | 181 | 4000 | 48 | 10 | CRUISE |
| 2023-06-21 21:53:46 | 171 | 181 | 4000 | 48 | 10 | CRUISE |
| 2023-06-21 21:54:47 | 171 | 181 | 4000 | 48 | 10 | CRUISE |
| 2023-06-21 21:55:48 | 171 | 181 | 4000 | 48 | 10 | CRUISE |
| 2023-06-21 21:56:48 | 171 | 181 | 4000 | 48 | 10 | CRUISE |
| 2023-06-21 21:57:49 | 171 | 181 | 4000 | 48 | 10 | CRUISE |
| 2023-06-21 21:58:50 | 171 | 181 | 4000 | 48 | 10 | CRUISE |
| 2023-06-21 21:59:51 | 171 | 181 | 4000 | 48 | 10 | CRUISE |
| 2023-06-21 22:00:52 | 171 | 181 | 4000 | 48 | 10 | CRUISE |
| 2023-06-21 22:01:52 | 171 | 181 | 4000 | 48 | 10 | CRUISE |
| 2023-06-21 22:02:53 | 171 | 181 | 4000 | 48 | 10 | CRUISE |
| 2023-06-21 22:03:54 | 171 | 181 | 4000 | 48 | 10 | CRUISE |
| 2023-06-21 22:04:55 | 171 | 181 | 4000 | 48 | 10 | CRUISE |
| 2023-06-21 22:05:55 | 171 | 181 | 4000 | 48 | 10 | CRUISE |
| 2023-06-21 22:06:56 | 171 | 181 | 4000 | 48 | 10 | CRUISE |
| 2023-06-21 22:07:57 | 171 | 181 | 4000 | 48 | 10 | CRUISE |
| 2023-06-21 22:08:58 | 171 | 181 | 4000 | 48 | 10 | CRUISE |
| 2023-06-21 22:09:59 | 171 | 181 | 4000 | 48 | 10 | CRUISE |
| 2023-06-21 22:10:59 | 171 | 181 | 4000 | 48 | 10 | CRUISE |
| 2023-06-21 22:12:00 | 171 | 181 | 4000 | 48 | 10 | CRUISE |
| 2023-06-21 22:13:01 | 171 | 181 | 4000 | 48 | 10 | CRUISE |
| 2023-06-21 22:14:02 | 171 | 181 | 4000 | 48 | 10 | CRUISE |
| 2023-06-21 22:15:03 | 171 | 181 | 4000 | 48 | 10 | CRUISE |
| 2023-06-21 22:16:03 | 171 | 181 | 4000 | 48 | 10 | CRUISE |
| 2023-06-21 22:17:04 | 171 | 180 | 3996 | 49 | 10 | CRUISE |
| 2023-06-21 22:18:05 | 171 | 180 | 3999 | 50 | 10 | CRUISE |
| 2023-06-21 22:19:06 | 172 | 181 | 4002 | 51 | 10 | CRUISE |
| 2023-06-21 22:20:08 | 173 | 183 | 4006 | 52 | 10 | CRUISE |
| 2023-06-21 22:21:08 | 172 | 181 | 3995 | 53 | 10 | CRUISE |
| 2023-06-21 22:22:09 | 170 | 179 | 3994 | 54 | 10 | CRUISE |
| 2023-06-21 22:23:10 | 172 | 182 | 3999 | 55 | 10 | CRUISE |
| 2023-06-21 22:24:11 | 170 | 180 | 3996 | 56 | 10 | CRUISE |
| 2023-06-21 22:25:11 | 171 | 181 | 3998 | 57 | 11 | CRUISE |
| 2023-06-21 22:26:12 | 134 | 142 | 3753 | 58 | 11 | CRUISE |
| 2023-06-21 22:27:15 | 106 | 111 | 3699 | 58 | 12 | CRUISE |
| 2023-06-21 22:28:16 | 115 | 120 | 3597 | 59 | 12 | CRUISE |
| 2023-06-21 22:29:17 | 124 | 129 | 3179 | 60 | 12 | LANDING |
| 2023-06-21 22:30:18 | 97 | 100 | 2586 | 60 | 13 | LANDING |
| 2023-06-21 22:31:19 | 95 | 98 | 2064 | 61 | 14 | LANDING |
| 2023-06-21 22:32:19 | 16 | 15 | 1884 | 61 | 14 | LANDING |
| 2023-06-21 22:33:20 | 23 | 24 | 1884 | 61 | 14 | AT THE GATE |
| 2023-06-21 22:34:21 | 28 | 29 | 1884 | 61 | 14 | AT THE GATE |
| 2023-06-21 22:35:22 | 0 | 0 | 1884 | 61 | 14 | AT THE GATE |